Mineral, WA

5:20 AM PST on February 26, 2017 (GMT -0800)
Mountain Foothills | | Change Station
Active Advisory: Winter Weather Advisory

Elev 1455 ft 46.71 °N, 122.18 °W | Updated 16 seconds ago

Snow
Snow
31.8 °F
Feels Like 32 °F
N
0.0
Wind Variable Wind from NNE
Gusts 0.0 mph

Today
High -- | Low -- °F
--% Chance of Precip.
Yesterday
High -- | Low -- °F
Precip. -- in
Pressure 29.74 in
Visibility 10.0 miles
Clouds Overcast 2500 ft
Windchill 32 °F
Dew Point 21 °F
Humidity 63%
Rainfall 0.00 in
Snow Depth Not available.
6:53 AM 5:50 PM
Waning Crescent, 0% visible
METAR KGRF 261258Z 13007KT 10SM OVC025 02/02 A2972 RMK AO2A RAB15E55 SLP070 P0000 T00210021 $
Pressure 29.74 in
Visibility 10.0 miles
Clouds Overcast 2500 ft
Windchill 32 °F
Dew Point 21 °F
Humidity 63%
Rainfall 0.00 in
Snow Depth Not available.
6:53 AM 5:50 PM
Waning Crescent, 0% visible
METAR KGRF 261258Z 13007KT 10SM OVC025 02/02 A2972 RMK AO2A RAB15E55 SLP070 P0000 T00210021 $

Get Your Daily Forecast Email!

Thanks for signing up!

Be on the lookout for a verification email in your inbox.

You'll start receiving the daily forecast at 8 AM.

×

10-Day Weather Forecast

Almanac

Astronomy

Feb. 26, 2017 Rise Set
Actual Time
Civil Twilight
Nautical Twilight
Astronomical Twilight
Moon
Length of Visible Light
Length of Day
Tomorrow will be .
, % of the Moon is Illuminated

Today's Extremes

State Highs State Lows

Community

WunderPhotos

Upload Photos

1,962,540 photos uploaded!

WunderBlog® & News

Nearby

Air Quality

  Air Quality AQ Index Pollutant
Not available.

Snow Depth

Station Depth Elevation

Earthquake Activity

City Distance Mag. Time & Date
Minimum magnitude displayed is 2.5.

Coastal Water Temperatures

Place Temperature

Stations

Nearby Weather Stations

Station Location Temp. Windchill Dew Point Humidity Wind Precip. Elev Updated Type
                   

Watches & Warnings

Winter Weather Advisory
Issued: 3:00 AM PST Feb. 26, 2017 – National Weather Service

... Winter Weather Advisory remains in effect until 10 PM PST this
evening...

* some affected locations... Stevens Pass, Snoqualmie Pass, White
Pass, and Paradise.

* Snow accumulations... 4 to 8 inches through early this evening.
This is in addition to to 3 to 6 inches that fell overnight.

* Snow level... near 300 feet this morning, rising to 500 to 1000
feet this afternoon and this evening.

* Main impact... snow will cause slippery roads and hazardous
driving conditions.


Precautionary/preparedness actions...

A Winter Weather Advisory for snow means that periods of snow
will cause primarily travel difficulties. Be prepared for snow
covered roads and limited visibilities, and use caution while
driving.